Airfield :







YOU CAN JOIN US ON...

 
LOGIN :

Register | Disclaimer

   EN    FR    IT 

 









Legend :    VFR   Marginal VFR   IFR   Intensive IFR   Very Intensive IFR
Visi :
Ceiling :
>= 8 km
>= 3000ft
5 to 8 km
1000 to 3000 ft
1500m to 5 km
500 to 1000 ft
800 to 1500m
200 to 500 ft
< 800m
< 200 ft
Symbols :   Thunderstorms  Fog  Heavy snow  Heavy precipitations  Wind > 20 kt







- Airport Elevation : 288 ft


KLEW - Auburn Lewiston Municipal

CURRENT METAR :
  • 190156Z AUTO 00000KT 10SM CLR 07/06 A3036 RMK AO2 SLP289 T00670056

EXPIRED METARs :
  • 190056Z AUTO 00000KT 10SM CLR 08/06 A3034 RMK AO2 SLP283 T00780056
  • 182356Z AUTO 02003KT 10SM CLR 09/06 A3034 RMK AO2 SLP281 T00940061 10167 20083 53011

TAF N/A
No reported NOTAMs for that airfield.



MET'MAP, your aeronautical weather chart ! - Copyright ORBIFLY December 2007 - Disclaimer

ORBIFLY MET'MAP TEAM :

Programming & Development : Alexandra Zaïnal
Concept & Development : Baudouin d'Aumeries
Co-Development & Prog : Marc-Olivier Méhu
Technical & hardware support : Manuel Goepfert

Contact : metmap@orbifly.com




SOURCES & CREDITS :

   NOAA